• Join FlightAware (Why Join?)
  • Login
  • US Flag 
10:48AM EDT


 

Airport Tracker/Info


-or-


 

Live Flight TrackerFlight Track Log ✈ THY2459 ✈ 13-May-2013 ✈ LTAF / ADA - LTBA / IST

Flight Track Log - Related Links

Times and Time Zones

All times are in EDT time to prevent confusion due to time zone crossing. See the THY2459 flight status page for this flight to view local times or setup timezone preferences in your user account.

Time Position Orientation Groundspeed Altitude Reporting Facility
EDT Latitude Longitude Course Direction KTS MPH feet Rate Location/Type
04:13AM 37.2835 34.8358 311° West  Level Estimated
04:14AM 37.3435 34.7465 310° West  Level Estimated
04:15AM 37.4035 34.6570 310° West  Level Estimated
04:16AM 37.4634 34.5674 310° West  Level Estimated
04:17AM 37.5233 34.4777 310° West  Level Estimated
04:18AM 37.5831 34.3877 310° West  Level Estimated
04:19AM 37.6428 34.2977 310° West  Level Estimated
04:20AM 37.7024 34.2075 310° West  Level Estimated
04:21AM 37.7620 34.1172 310° West  Level Estimated
04:22AM 37.8215 34.0267 310° West  Level Estimated
04:23AM 37.8810 33.9360 310° West  Level Estimated
04:24AM 37.9403 33.8453 310° West  Level Estimated
04:25AM 37.9996 33.7543 310° West  Level Estimated
04:26AM 38.0589 33.6633 310° West  Level Estimated
04:27AM 38.1180 33.5720 310° West  Level Estimated
04:28AM 38.1771 33.4807 309° West  Level Estimated
04:29AM 38.2361 33.3891 309° West  Level Estimated
04:30AM 38.2951 33.2975 309° West  Level Estimated
04:31AM 38.3540 33.2057 309° West  Level Estimated
04:32AM 38.4128 33.1137 309° West  Level Estimated
04:33AM 38.4715 33.0216 309° West  Level Estimated
04:34AM 38.5302 32.9294 309° West  Level Estimated
04:35AM 38.5888 32.8369 309° West  Level Estimated
04:36AM 38.6473 32.7444 309° West  Level Estimated
04:37AM 38.7057 32.6517 309° West  Level Estimated
04:38AM 38.7641 32.5588 309° West  Level Estimated
04:39AM 38.8224 32.4658 309° West  Level Estimated
04:40AM 38.8806 32.3726 309° West  Level Estimated
04:41AM 38.9388 32.2793 309° West  Level Estimated
04:42AM 38.9969 32.1858 309° West  Level Estimated
04:43AM 39.0549 32.0922 309° West  Level Estimated
04:44AM 39.1128 31.9984 309° West  Level Estimated
04:45AM 39.1707 31.9044 308° West  Level Estimated
04:46AM 39.2284 31.8104 308° West  Level Estimated
04:47AM 39.2861 31.7161 308° West  Level Estimated
04:48AM 39.3438 31.6217 308° West  Level Estimated
04:49AM 39.4013 31.5271 308° West  Level Estimated
04:50AM 39.4588 31.4324 308° West  Level Estimated
04:51AM 39.5162 31.3376 308° West  Level Estimated
04:52AM 39.5735 31.2425 308° West  Level Estimated
04:53AM 39.6307 31.1473 308° West  Level Estimated
04:54AM 39.6879 31.0520 308° West  Level Estimated
04:55AM 39.7450 30.9565 308° West  Level Estimated
04:56AM 39.8020 30.8608 308° West  Level Estimated
04:57AM 39.8589 30.7650 308° West  Level Estimated
04:58AM 39.9157 30.6690 308° West  Level Estimated
04:59AM 39.9725 30.5729 308° West  Level Estimated
05:00AM 40.0292 30.4766 308° West  Level Estimated
05:01AM 40.0858 30.3801 308° West  Level Estimated
05:02AM 40.1423 30.2835 307° West  Level Estimated
05:03AM 40.1988 30.1867 307° West  Level Estimated
05:04AM 40.2552 30.0898 307° West  Level Estimated
05:05AM 40.3114 29.9927 307° West  Level Estimated
05:06AM 40.3676 29.8954 307° West  Level Estimated
05:07AM 40.4238 29.7980 307° West  Level Estimated
05:08AM 40.4798 29.7004 307° West  Level Estimated
05:09AM 40.5358 29.6027 307° West  Level Estimated
05:10AM 40.5916 29.5048 307° West  Level Estimated
05:11AM 40.6474 29.4067 307° West  Level Estimated
05:12AM 40.7031 29.3085 307° West  Level Estimated
05:13AM 40.7588 29.2100 307° West  Level Estimated
05:14AM 40.8143 29.1115 307° West  Level Estimated
05:15AM 40.8698 29.0127 307° West  Level Estimated
05:16AM 40.9251 28.9138 307° West  Level Estimated
05:17AM 40.9769 28.8211 306° West  Level Estimated
05:18AM 40.9769 28.8211 21° North  Level Estimated
05:19AM 40.9769 28.8211 21° North  Level Estimated
05:20AM 40.9769 28.8211 21° North  Level Estimated
05:21AM 40.9769 28.8211 21° North  Level Estimated
05:22AM 40.9769 28.8211 21° North  Level Estimated
05:23AM 40.9769 28.8211 21° North  Level Estimated
05:24AM 40.9769 28.8211 21° North  Level Estimated
05:25AM 40.9769 28.8211 21° North  Level Estimated
05:26AM 40.9769 28.8211 21° North  Level Estimated
05:27AM 40.9769 28.8211 21° North  Level Estimated
05:28AM 40.9769 28.8211 21° North  Level Estimated
05:29AM 40.9769 28.8211 21° North  Level Estimated
05:30AM 40.9769 28.8211 21° North  Level Estimated
05:31AM 40.9769 28.8211 21° North  Level Estimated
05:32AM 40.9769 28.8211 21° North  Level Estimated
05:33AM 40.9769 28.8211 21° North  Level Estimated